createdAt,value
2017-05-29T00:00:03.009Z,1009.41
2017-05-29T00:01:15.278Z,1009.43
2017-05-29T00:02:27.529Z,1009.41
2017-05-29T00:03:40.050Z,1009.42
2017-05-29T00:04:52.642Z,1009.45
2017-05-29T00:06:05.195Z,1009.41
2017-05-29T00:07:17.459Z,1009.41
2017-05-29T00:08:29.711Z,1009.42
2017-05-29T00:09:41.954Z,1009.44
2017-05-29T00:10:54.180Z,1009.42
2017-05-29T00:12:06.446Z,1009.38
2017-05-29T00:13:18.687Z,1009.4
2017-05-29T00:14:31.230Z,1009.39
2017-05-29T00:15:43.762Z,1009.35
2017-05-29T00:16:56.004Z,1009.37
2017-05-29T00:18:07.935Z,1009.35
2017-05-29T00:19:20.175Z,1009.34
2017-05-29T00:20:32.435Z,1009.34
2017-05-29T00:21:44.966Z,1009.32
2017-05-29T00:22:57.513Z,1009.27
2017-05-29T00:24:09.733Z,1009.27
2017-05-29T00:25:21.975Z,1009.23
2017-05-29T00:26:34.539Z,1009.22
2017-05-29T00:27:47.071Z,1009.22
2017-05-29T00:28:59.342Z,1009.17
2017-05-29T00:30:11.555Z,1009.19
2017-05-29T00:31:23.807Z,1009.19
2017-05-29T00:32:36.375Z,1009.18
2017-05-29T00:33:48.898Z,1009.16
2017-05-29T00:35:01.453Z,1009.2
2017-05-29T00:36:13.706Z,1009.17
2017-05-29T00:37:25.940Z,1009.18
2017-05-29T00:38:38.200Z,1009.17
2017-05-29T00:39:50.744Z,1009.19
2017-05-29T00:41:03.293Z,1009.13
2017-05-29T00:42:15.523Z,1009.1
2017-05-29T00:43:27.786Z,1009.1
2017-05-29T00:44:40.031Z,1009.15
2017-05-29T00:45:52.278Z,1009.14
2017-05-29T00:47:04.524Z,1009.11
2017-05-29T00:48:16.194Z,1009.13
2017-05-29T00:49:28.444Z,1009.07
2017-05-29T00:50:40.993Z,1009.11
2017-05-29T00:51:53.782Z,1009.08
2017-05-29T00:53:06.010Z,1009.07
2017-05-29T00:54:17.649Z,1009.11
2017-05-29T00:55:30.194Z,1009.1
2017-05-29T00:56:42.748Z,1009.04
2017-05-29T00:57:55.013Z,1009.05
2017-05-29T00:59:06.946Z,1009.04
2017-05-29T01:00:19.189Z,1009.03
2017-05-29T01:01:31.746Z,1008.99
2017-05-29T01:02:43.975Z,1008.97
2017-05-29T01:03:56.523Z,1008.98
2017-05-29T01:05:09.044Z,1009.05
2017-05-29T01:06:21.581Z,1009.02
2017-05-29T01:07:33.500Z,1009
2017-05-29T01:08:45.736Z,1009.02
2017-05-29T01:09:58.279Z,1008.99
2017-05-29T01:11:10.825Z,1008.99
2017-05-29T01:12:23.367Z,1008.97
2017-05-29T01:13:35.608Z,1008.94
2017-05-29T01:14:47.836Z,1008.98
2017-05-29T01:16:00.383Z,1008.97
2017-05-29T01:17:12.926Z,1008.96
2017-05-29T01:18:25.176Z,1008.94
2017-05-29T01:19:37.418Z,1008.92
2017-05-29T01:20:49.943Z,1008.91
2017-05-29T01:22:01.888Z,1008.92
2017-05-29T01:23:14.132Z,1008.91
2017-05-29T01:24:26.308Z,1008.94
2017-05-29T01:25:38.850Z,1008.89
2017-05-29T01:26:51.414Z,1008.86
2017-05-29T01:28:03.340Z,1008.85
2017-05-29T01:29:15.593Z,1008.85
2017-05-29T01:30:27.556Z,1008.83
2017-05-29T01:31:39.776Z,1008.81
2017-05-29T01:32:52.324Z,1008.82
2017-05-29T01:34:04.521Z,1008.81
2017-05-29T01:35:16.482Z,1008.84
2017-05-29T01:36:28.710Z,1008.85
2017-05-29T01:37:41.263Z,1008.83
2017-05-29T01:38:53.522Z,1008.78
2017-05-29T01:40:06.066Z,1008.77
2017-05-29T01:41:17.998Z,1008.75
2017-05-29T01:42:30.216Z,1008.74
2017-05-29T01:43:42.463Z,1008.8
2017-05-29T01:44:55.033Z,1008.79
2017-05-29T01:46:06.978Z,1008.78
2017-05-29T01:47:19.228Z,1008.74
2017-05-29T01:48:31.473Z,1008.7
2017-05-29T01:49:44.020Z,1008.69
2017-05-29T01:50:56.567Z,1008.74
2017-05-29T01:52:09.099Z,1008.74
2017-05-29T01:53:20.734Z,1008.71
2017-05-29T01:54:33.274Z,1008.72
2017-05-29T01:55:45.787Z,1008.69
2017-05-29T01:56:58.316Z,1008.67
2017-05-29T01:58:10.215Z,1008.67
2017-05-29T01:59:22.762Z,1008.68
2017-05-29T02:00:34.978Z,1008.66
2017-05-29T02:01:47.500Z,1008.71
2017-05-29T02:03:00.026Z,1008.66
2017-05-29T02:04:11.966Z,1008.7
2017-05-29T02:05:24.492Z,1008.66
2017-05-29T02:06:37.039Z,1008.69
2017-05-29T02:07:49.857Z,1008.65
2017-05-29T02:09:02.400Z,1008.64
2017-05-29T02:10:14.621Z,1008.63
2017-05-29T02:11:27.171Z,1008.64
2017-05-29T02:12:39.394Z,1008.62
2017-05-29T02:13:51.630Z,1008.63
2017-05-29T02:15:04.135Z,1008.63
2017-05-29T02:16:16.380Z,1008.63
2017-05-29T02:17:28.964Z,1008.57
2017-05-29T02:18:41.494Z,1008.54
2017-05-29T02:19:53.804Z,1008.51
2017-05-29T02:21:06.043Z,1008.49
2017-05-29T02:22:18.264Z,1008.51
2017-05-29T02:23:30.804Z,1008.52
2017-05-29T02:24:43.338Z,1008.5
2017-05-29T02:25:54.989Z,1008.5
2017-05-29T02:27:07.232Z,1008.54
2017-05-29T02:28:19.760Z,1008.5
2017-05-29T02:29:32.610Z,1008.48
2017-05-29T02:30:45.144Z,1008.52
2017-05-29T02:31:57.672Z,1008.5
2017-05-29T02:33:09.890Z,1008.5
2017-05-29T02:34:22.108Z,1008.49
2017-05-29T02:35:34.656Z,1008.44
2017-05-29T02:36:46.906Z,1008.47
2017-05-29T02:37:59.451Z,1008.5
2017-05-29T02:39:11.401Z,1008.48
2017-05-29T02:40:23.935Z,1008.5
2017-05-29T02:41:36.485Z,1008.47
2017-05-29T02:42:49.053Z,1008.48
2017-05-29T02:44:01.559Z,1008.46
2017-05-29T02:45:13.778Z,1008.44
2017-05-29T02:46:26.328Z,1008.5
2017-05-29T02:47:38.864Z,1008.5
2017-05-29T02:48:50.783Z,1008.51
2017-05-29T02:50:03.010Z,1008.53
2017-05-29T02:51:15.186Z,1008.57
2017-05-29T02:52:27.712Z,1008.54
2017-05-29T02:53:40.233Z,1008.48
2017-05-29T02:54:52.771Z,1008.48
2017-05-29T02:56:05.034Z,1008.52
2017-05-29T02:57:17.266Z,1008.52
2017-05-29T02:58:29.798Z,1008.49
2017-05-29T02:59:42.031Z,1008.51
2017-05-29T03:00:54.580Z,1008.5
2017-05-29T03:02:06.843Z,1008.47
2017-05-29T03:03:19.088Z,1008.53
2017-05-29T03:04:31.616Z,1008.48
2017-05-29T03:05:44.133Z,1008.52
2017-05-29T03:06:56.685Z,1008.52
2017-05-29T03:08:09.221Z,1008.52
2017-05-29T03:09:21.494Z,1008.52
2017-05-29T03:10:33.433Z,1008.56
2017-05-29T03:11:46.020Z,1008.54
2017-05-29T03:12:58.259Z,1008.54
2017-05-29T03:14:10.483Z,1008.53
2017-05-29T03:15:22.725Z,1008.5
2017-05-29T03:16:34.947Z,1008.54
2017-05-29T03:17:47.485Z,1008.52
2017-05-29T03:19:00.038Z,1008.55
2017-05-29T03:20:12.585Z,1008.6
2017-05-29T03:21:25.110Z,1008.63
2017-05-29T03:22:37.652Z,1008.58
2017-05-29T03:23:50.150Z,1008.59
2017-05-29T03:25:02.414Z,1008.58
2017-05-29T03:26:14.965Z,1008.56
2017-05-29T03:27:27.209Z,1008.56
2017-05-29T03:28:39.730Z,1008.59
2017-05-29T03:29:52.277Z,1008.61
2017-05-29T03:31:04.502Z,1008.62
2017-05-29T03:32:17.042Z,1008.68
2017-05-29T03:33:28.972Z,1008.66
2017-05-29T03:34:41.509Z,1008.71
2017-05-29T03:35:54.077Z,1008.75
2017-05-29T03:37:05.735Z,1008.74
2017-05-29T03:38:17.977Z,1008.72
2017-05-29T03:39:30.522Z,1008.78
2017-05-29T03:40:43.067Z,1008.79
2017-05-29T03:41:55.609Z,1008.75
2017-05-29T03:43:07.852Z,1008.76
2017-05-29T03:44:20.424Z,1008.8
2017-05-29T03:45:32.652Z,1008.79
2017-05-29T03:46:45.203Z,1008.84
2017-05-29T03:47:57.819Z,1008.78
2017-05-29T03:49:09.454Z,1008.81
2017-05-29T03:50:21.660Z,1008.85
2017-05-29T03:51:34.206Z,1008.81
2017-05-29T03:52:46.777Z,1008.79
2017-05-29T03:53:59.316Z,1008.79
2017-05-29T03:55:11.869Z,1008.81
2017-05-29T03:56:24.140Z,1008.82
2017-05-29T03:57:36.385Z,1008.84
2017-05-29T03:58:48.932Z,1008.84
2017-05-29T04:00:01.502Z,1008.89
2017-05-29T04:01:13.144Z,1008.87
2017-05-29T04:02:25.708Z,1008.9
2017-05-29T04:03:38.266Z,1008.9
2017-05-29T04:04:50.792Z,1008.94
2017-05-29T04:06:02.729Z,1008.94
2017-05-29T04:07:15.278Z,1008.93
2017-05-29T04:08:27.194Z,1008.92
2017-05-29T04:09:39.441Z,1008.91
2017-05-29T04:10:51.688Z,1008.93
2017-05-29T04:12:04.239Z,1008.95
2017-05-29T04:13:16.755Z,1008.96
2017-05-29T04:14:28.992Z,1008.98
2017-05-29T04:15:41.249Z,1008.95
2017-05-29T04:16:53.200Z,1008.93
2017-05-29T04:18:05.463Z,1009
2017-05-29T04:19:17.764Z,1008.96
2017-05-29T04:20:29.737Z,1009.03
2017-05-29T04:21:42.280Z,1009.07
2017-05-29T04:22:54.842Z,1009.04
2017-05-29T04:24:07.047Z,1009.09
2017-05-29T04:25:19.565Z,1009.09
2017-05-29T04:26:32.113Z,1009.13
2017-05-29T04:27:44.658Z,1009.13
2017-05-29T04:28:57.518Z,1009.12
2017-05-29T04:30:09.749Z,1009.12
2017-05-29T04:31:21.368Z,1009.14
2017-05-29T04:32:33.610Z,1009.11
2017-05-29T04:33:45.559Z,1009.14
2017-05-29T04:34:58.162Z,1009.12
2017-05-29T04:36:10.102Z,1009.12
2017-05-29T04:37:22.648Z,1009.13
2017-05-29T04:38:35.169Z,1009.22
2017-05-29T04:39:47.718Z,1009.18
2017-05-29T04:41:00.279Z,1009.18
2017-05-29T04:42:12.210Z,1009.22
2017-05-29T04:43:24.152Z,1009.21
2017-05-29T04:44:36.081Z,1009.26
2017-05-29T04:45:48.640Z,1009.24
2017-05-29T04:47:00.597Z,1009.35
2017-05-29T04:48:13.147Z,1009.33
2017-05-29T04:49:25.374Z,1009.34
2017-05-29T04:50:37.906Z,1009.35
2017-05-29T04:51:50.150Z,1009.32
2017-05-29T04:53:02.693Z,1009.36
2017-05-29T04:54:14.961Z,1009.38
2017-05-29T04:55:27.186Z,1009.38
2017-05-29T04:56:39.425Z,1009.39
2017-05-29T04:57:51.953Z,1009.34
2017-05-29T04:59:04.174Z,1009.33
2017-05-29T05:00:16.392Z,1009.34
2017-05-29T05:01:28.896Z,1009.35
2017-05-29T05:02:41.428Z,1009.33
2017-05-29T05:03:53.384Z,1009.39
2017-05-29T05:05:05.632Z,1009.39
2017-05-29T05:06:17.880Z,1009.41
2017-05-29T05:07:30.139Z,1009.41
2017-05-29T05:08:42.383Z,1009.4
2017-05-29T05:09:54.591Z,1009.45
2017-05-29T05:11:06.535Z,1009.47
2017-05-29T05:12:18.497Z,1009.49
2017-05-29T05:13:31.054Z,1009.49
2017-05-29T05:14:43.325Z,1009.47
2017-05-29T05:15:55.569Z,1009.47
2017-05-29T05:17:08.117Z,1009.46
2017-05-29T05:18:20.337Z,1009.44
2017-05-29T05:19:32.309Z,1009.39
2017-05-29T05:20:44.868Z,1009.43
2017-05-29T05:21:57.424Z,1009.41
2017-05-29T05:23:10.264Z,1009.42
2017-05-29T05:24:22.837Z,1009.42
2017-05-29T05:25:34.480Z,1009.47
2017-05-29T05:26:46.986Z,1009.49
2017-05-29T05:27:59.529Z,1009.54
2017-05-29T05:29:11.775Z,1009.54
2017-05-29T05:30:24.322Z,1009.52
2017-05-29T05:31:36.569Z,1009.51
2017-05-29T05:32:48.509Z,1009.48
2017-05-29T05:34:00.484Z,1009.5
2017-05-29T05:35:12.729Z,1009.48
2017-05-29T05:36:24.665Z,1009.44
2017-05-29T05:37:36.601Z,1009.46
2017-05-29T05:38:48.569Z,1009.48
2017-05-29T05:40:01.114Z,1009.45
2017-05-29T05:41:13.359Z,1009.47
2017-05-29T05:42:25.607Z,1009.44
2017-05-29T05:43:37.852Z,1009.4
2017-05-29T05:44:50.715Z,1009.47
2017-05-29T05:46:03.252Z,1009.45
2017-05-29T05:47:15.486Z,1009.43
2017-05-29T05:48:28.038Z,1009.4
2017-05-29T05:49:40.581Z,1009.38
2017-05-29T05:50:53.116Z,1009.39
2017-05-29T05:52:05.653Z,1009.41
2017-05-29T05:53:17.895Z,1009.34
2017-05-29T05:54:30.158Z,1009.38
2017-05-29T05:55:42.700Z,1009.33
2017-05-29T05:56:54.949Z,1009.35
2017-05-29T05:58:07.475Z,1009.34
2017-05-29T05:59:19.105Z,1009.35
2017-05-29T06:00:31.657Z,1009.31
2017-05-29T06:01:43.908Z,1009.29
2017-05-29T06:02:56.140Z,1009.29
2017-05-29T06:04:08.370Z,1009.37
2017-05-29T06:05:20.332Z,1009.34
2017-05-29T06:06:32.890Z,1009.33
2017-05-29T06:07:45.141Z,1009.34
2017-05-29T06:08:57.664Z,1009.34
2017-05-29T06:10:09.912Z,1009.31
2017-05-29T06:11:22.146Z,1009.34
2017-05-29T06:12:34.378Z,1009.3
2017-05-29T06:13:46.923Z,1009.28
2017-05-29T06:14:59.472Z,1009.26
2017-05-29T06:16:11.994Z,1009.26
2017-05-29T06:17:24.537Z,1009.31
2017-05-29T06:18:36.781Z,1009.35
2017-05-29T06:19:49.343Z,1009.56
2017-05-29T06:21:01.575Z,1009.51
2017-05-29T06:22:13.817Z,1009.53
2017-05-29T06:23:26.059Z,1009.57
2017-05-29T06:24:38.617Z,1009.46
2017-05-29T06:25:50.859Z,1009.42
2017-05-29T06:27:03.404Z,1009.45
2017-05-29T06:28:15.349Z,1009.46
2017-05-29T06:29:27.897Z,1009.39
2017-05-29T06:30:39.546Z,1009.33
2017-05-29T06:31:52.110Z,1009.44
2017-05-29T06:33:04.663Z,1009.48
2017-05-29T06:34:17.185Z,1009.63
2017-05-29T06:35:29.451Z,1009.79
2017-05-29T06:36:41.716Z,1009.33
2017-05-29T06:37:53.969Z,1009.37
2017-05-29T06:39:06.828Z,1009.37
2017-05-29T06:40:18.777Z,1009.68
2017-05-29T06:41:31.056Z,1009.52
2017-05-29T06:42:43.345Z,1009.51
2017-05-29T06:43:55.899Z,1009.62
2017-05-29T06:45:08.165Z,1009.48
2017-05-29T06:46:20.170Z,1009.56
2017-05-29T06:47:32.125Z,1009.65
2017-05-29T06:48:44.082Z,1009.67
2017-05-29T06:49:56.646Z,1009.73
2017-05-29T06:51:09.237Z,1009.61
2017-05-29T06:52:20.890Z,1009.64
2017-05-29T06:53:33.441Z,1009.66
2017-05-29T06:54:45.674Z,1009.64
2017-05-29T06:55:57.924Z,1009.63
2017-05-29T06:57:10.499Z,1009.57
2017-05-29T06:58:23.045Z,1009.61
2017-05-29T06:59:35.609Z,1009.56
2017-05-29T07:00:48.383Z,1009.6
2017-05-29T07:02:00.635Z,1009.53
2017-05-29T07:03:12.875Z,1009.49
2017-05-29T07:04:25.449Z,1009.35
2017-05-29T07:05:37.723Z,1009.24
2017-05-29T07:06:50.266Z,1009.26
2017-05-29T07:08:02.812Z,1009.25
2017-05-29T07:09:15.078Z,1009.2
2017-05-29T07:10:26.734Z,1009.22
2017-05-29T07:11:39.304Z,1009.23
2017-05-29T07:12:51.875Z,1009.24
2017-05-29T07:14:04.458Z,1009.19
2017-05-29T07:15:16.995Z,1009.21
2017-05-29T07:16:29.621Z,1009.23
2017-05-29T07:17:42.200Z,1009.15
2017-05-29T07:18:54.754Z,1009.06
2017-05-29T07:20:07.029Z,1009.04
2017-05-29T07:21:18.992Z,1009.06
2017-05-29T07:22:31.529Z,1009.05
2017-05-29T07:23:43.155Z,1009
2017-05-29T07:24:55.711Z,1009.02
2017-05-29T07:26:07.653Z,1008.98
2017-05-29T07:27:19.288Z,1009
2017-05-29T07:28:30.923Z,1009.01
2017-05-29T07:29:42.893Z,1009
2017-05-29T07:30:55.464Z,1008.97
2017-05-29T07:32:08.058Z,1008.89
2017-05-29T07:33:19.726Z,1008.92
2017-05-29T07:34:32.302Z,1008.94
2017-05-29T07:35:44.268Z,1008.91
2017-05-29T07:36:56.822Z,1008.96
2017-05-29T07:38:08.777Z,1008.93
2017-05-29T07:39:21.032Z,1008.9
2017-05-29T07:40:33.002Z,1008.92
2017-05-29T07:41:45.248Z,1008.92
2017-05-29T07:42:57.798Z,1008.9
2017-05-29T07:44:10.364Z,1008.9
2017-05-29T07:45:22.636Z,1008.87
2017-05-29T07:46:35.161Z,1008.9
2017-05-29T07:47:47.131Z,1008.94
2017-05-29T07:48:59.673Z,1008.91
2017-05-29T07:50:12.248Z,1008.91
2017-05-29T07:51:24.507Z,1008.91
2017-05-29T07:52:37.064Z,1008.94
2017-05-29T07:53:49.332Z,1008.91
2017-05-29T07:55:01.896Z,1008.91
2017-05-29T07:56:14.149Z,1008.92
2017-05-29T07:57:26.099Z,1008.95
2017-05-29T07:58:38.692Z,1008.9
2017-05-29T07:59:51.264Z,1008.84
2017-05-29T08:01:03.208Z,1008.83
2017-05-29T08:02:15.755Z,1008.82
2017-05-29T08:03:28.002Z,1008.81
2017-05-29T08:04:39.671Z,1008.85
2017-05-29T08:05:52.233Z,1008.87
2017-05-29T08:07:04.487Z,1008.84
2017-05-29T08:08:17.057Z,1008.86
2017-05-29T08:09:29.331Z,1008.84
2017-05-29T08:10:41.953Z,1008.85
2017-05-29T08:11:53.923Z,1008.85
2017-05-29T08:13:06.166Z,1008.9
2017-05-29T08:14:18.131Z,1008.86
2017-05-29T08:15:30.084Z,1008.8
2017-05-29T08:16:42.701Z,1008.84
2017-05-29T08:17:54.646Z,1008.87
2017-05-29T08:19:07.250Z,1008.86
2017-05-29T08:20:19.542Z,1008.85
2017-05-29T08:21:31.488Z,1008.86
2017-05-29T08:22:44.079Z,1008.84
2017-05-29T08:23:56.629Z,1008.88
2017-05-29T08:25:08.579Z,1008.86
2017-05-29T08:26:20.543Z,1008.85
2017-05-29T08:27:33.120Z,1008.86
2017-05-29T08:28:45.063Z,1008.89
2017-05-29T08:29:57.338Z,1008.86
2017-05-29T08:31:09.631Z,1008.83
2017-05-29T08:32:22.201Z,1008.88
2017-05-29T08:33:34.427Z,1008.87
2017-05-29T08:34:46.417Z,1008.92
2017-05-29T08:35:58.668Z,1008.89
2017-05-29T08:37:10.914Z,1008.92
2017-05-29T08:38:22.885Z,1008.96
2017-05-29T08:39:35.126Z,1008.94
2017-05-29T08:40:47.418Z,1008.95
2017-05-29T08:41:59.972Z,1008.91
2017-05-29T08:43:12.243Z,1008.96
2017-05-29T08:44:23.586Z,1008.88
2017-05-29T08:45:35.858Z,1008.86
2017-05-29T08:46:48.459Z,1008.85
2017-05-29T08:48:00.402Z,1008.84
2017-05-29T08:49:12.944Z,1008.83
2017-05-29T08:50:25.515Z,1008.79
2017-05-29T08:51:37.761Z,1008.76
2017-05-29T08:52:49.713Z,1008.81
2017-05-29T08:54:01.978Z,1008.83
2017-05-29T08:55:14.256Z,1008.84
2017-05-29T08:56:25.623Z,1008.89
2017-05-29T08:57:37.893Z,1008.82
2017-05-29T08:58:50.466Z,1008.82
2017-05-29T09:00:02.750Z,1008.81
2017-05-29T09:01:14.998Z,1008.79
2017-05-29T09:02:26.958Z,1008.79
2017-05-29T09:03:39.523Z,1008.75
2017-05-29T09:04:52.097Z,1008.79
2017-05-29T09:06:04.055Z,1008.75
2017-05-29T09:07:16.609Z,1008.73
2017-05-29T09:08:28.607Z,1008.79
2017-05-29T09:09:40.576Z,1008.78
2017-05-29T09:10:53.137Z,1008.72
2017-05-29T09:12:05.085Z,1008.73
2017-05-29T09:13:17.642Z,1008.71
2017-05-29T09:14:29.587Z,1008.71
2017-05-29T09:15:41.860Z,1008.72
2017-05-29T09:16:54.451Z,1008.63
2017-05-29T09:18:06.996Z,1008.7
2017-05-29T09:19:19.267Z,1008.69
2017-05-29T09:20:30.939Z,1008.72
2017-05-29T09:21:43.528Z,1008.72
2017-05-29T09:22:55.805Z,1008.89
2017-05-29T09:24:07.778Z,1009.01
2017-05-29T09:25:19.722Z,1009.06
2017-05-29T09:26:32.271Z,1009.07
2017-05-29T09:27:44.798Z,1009
2017-05-29T09:28:57.052Z,1008.93
2017-05-29T09:30:09.613Z,1008.91
2017-05-29T09:31:21.583Z,1008.94
2017-05-29T09:32:33.827Z,1008.98
2017-05-29T09:33:46.097Z,1008.95
2017-05-29T09:34:58.070Z,1008.9
2017-05-29T09:36:10.340Z,1008.88
2017-05-29T09:37:22.881Z,1008.77
2017-05-29T09:38:35.502Z,1008.74
2017-05-29T09:39:48.076Z,1008.78
2017-05-29T09:41:00.344Z,1008.78
2017-05-29T09:42:12.308Z,1008.78
2017-05-29T09:43:24.885Z,1008.73
2017-05-29T09:44:36.538Z,1008.78
2017-05-29T09:45:49.114Z,1008.74
2017-05-29T09:47:01.677Z,1008.8
2017-05-29T09:48:13.972Z,1008.8
2017-05-29T09:49:26.522Z,1008.76
2017-05-29T09:50:38.807Z,1008.78
2017-05-29T09:51:51.386Z,1008.74
2017-05-29T09:53:03.628Z,1008.81
2017-05-29T09:54:15.883Z,1008.86
2017-05-29T09:55:28.124Z,1008.78
2017-05-29T09:56:40.695Z,1008.82
2017-05-29T09:57:52.986Z,1008.79
2017-05-29T09:59:05.261Z,1008.78
2017-05-29T10:00:17.233Z,1008.77
2017-05-29T10:01:29.200Z,1008.73
2017-05-29T10:02:41.742Z,1008.76
2017-05-29T10:03:54.018Z,1008.7
2017-05-29T10:05:05.966Z,1008.69
2017-05-29T10:06:18.539Z,1008.72
2017-05-29T10:07:30.782Z,1008.78
2017-05-29T10:08:43.355Z,1008.74
2017-05-29T10:09:55.326Z,1008.77
2017-05-29T10:11:07.599Z,1008.75
2017-05-29T10:12:20.159Z,1008.77
2017-05-29T10:13:32.413Z,1008.74
2017-05-29T10:14:44.972Z,1008.68
2017-05-29T10:15:57.250Z,1008.74
2017-05-29T10:17:09.825Z,1008.69
2017-05-29T10:18:22.114Z,1008.68
2017-05-29T10:19:34.366Z,1008.7
2017-05-29T10:20:46.960Z,1008.7
2017-05-29T10:21:59.235Z,1008.71
2017-05-29T10:23:11.218Z,1008.71
2017-05-29T10:24:22.868Z,1008.66
2017-05-29T10:25:35.136Z,1008.61
2017-05-29T10:26:47.063Z,1008.62
2017-05-29T10:27:59.310Z,1008.59
2017-05-29T10:29:11.286Z,1008.6
2017-05-29T10:30:23.253Z,1008.61
2017-05-29T10:31:35.239Z,1008.57
2017-05-29T10:32:47.189Z,1008.6
2017-05-29T10:33:59.744Z,1008.62
2017-05-29T10:35:12.014Z,1008.64
2017-05-29T10:36:24.274Z,1008.6
2017-05-29T10:37:36.207Z,1008.61
2017-05-29T10:38:48.774Z,1008.59
2017-05-29T10:40:01.031Z,1008.55
2017-05-29T10:41:13.292Z,1008.53
2017-05-29T10:42:24.968Z,1008.61
2017-05-29T10:43:37.532Z,1008.53
2017-05-29T10:44:49.781Z,1008.52
2017-05-29T10:46:02.066Z,1008.56
2017-05-29T10:47:13.400Z,1008.53
2017-05-29T10:48:25.370Z,1008.56
2017-05-29T10:49:37.639Z,1008.49
2017-05-29T10:50:50.225Z,1008.54
2017-05-29T10:52:02.782Z,1008.52
2017-05-29T10:53:14.740Z,1008.54
2017-05-29T10:54:26.699Z,1008.49
2017-05-29T10:55:39.272Z,1008.52
2017-05-29T10:56:51.543Z,1008.49
2017-05-29T10:58:03.787Z,1008.47
2017-05-29T10:59:15.761Z,1008.48
2017-05-29T11:00:28.029Z,1008.44
2017-05-29T11:01:39.999Z,1008.43
2017-05-29T11:02:52.542Z,1008.45
2017-05-29T11:04:05.091Z,1008.39
2017-05-29T11:05:17.033Z,1008.42
2017-05-29T11:06:29.258Z,1008.45
2017-05-29T11:07:41.854Z,1008.47
2017-05-29T11:08:53.817Z,1008.46
2017-05-29T11:10:06.371Z,1008.5
2017-05-29T11:11:18.341Z,1008.47
2017-05-29T11:12:30.914Z,1008.41
2017-05-29T11:13:43.186Z,1008.39
2017-05-29T11:14:55.483Z,1008.49
2017-05-29T11:16:08.025Z,1008.49
2017-05-29T11:17:19.999Z,1008.54
2017-05-29T11:18:32.584Z,1008.52
2017-05-29T11:19:44.868Z,1008.54
2017-05-29T11:20:57.134Z,1008.51
2017-05-29T11:22:09.107Z,1008.52
2017-05-29T11:23:20.769Z,1008.49
2017-05-29T11:24:33.043Z,1008.47
2017-05-29T11:25:45.618Z,1008.42
2017-05-29T11:26:58.189Z,1008.45
2017-05-29T11:28:10.731Z,1008.37
2017-05-29T11:29:22.981Z,1008.36
2017-05-29T11:30:35.231Z,1008.35
2017-05-29T11:31:47.472Z,1008.34
2017-05-29T11:33:00.011Z,1008.38
2017-05-29T11:34:12.611Z,1008.33
2017-05-29T11:35:24.878Z,1008.37
2017-05-29T11:36:37.428Z,1008.31
2017-05-29T11:37:49.694Z,1008.3
2017-05-29T11:39:01.970Z,1008.27
2017-05-29T11:40:14.620Z,1008.27
2017-05-29T11:41:27.196Z,1008.3
2017-05-29T11:42:39.460Z,1008.33
2017-05-29T11:43:52.005Z,1008.31
2017-05-29T11:45:04.267Z,1008.37
2017-05-29T11:46:16.249Z,1008.38
2017-05-29T11:47:28.534Z,1008.34
2017-05-29T11:48:40.790Z,1008.34
2017-05-29T11:49:53.389Z,1008.37
2017-05-29T11:51:05.949Z,1008.36
2017-05-29T11:52:17.921Z,1008.32
2017-05-29T11:53:30.488Z,1008.3
2017-05-29T11:54:43.047Z,1008.3
2017-05-29T11:55:55.609Z,1008.3
2017-05-29T11:57:08.184Z,1008.29
2017-05-29T11:58:20.449Z,1008.25
2017-05-29T11:59:33.027Z,1008.31
2017-05-29T12:00:44.696Z,1008.25
2017-05-29T12:01:57.248Z,1008.23
2017-05-29T12:03:09.205Z,1008.19
2017-05-29T12:04:21.441Z,1008.22
2017-05-29T12:05:34.005Z,1008.19
2017-05-29T12:06:46.254Z,1008.2
2017-05-29T12:07:58.522Z,1008.19
2017-05-29T12:09:11.067Z,1008.17
2017-05-29T12:10:23.361Z,1008.19
2017-05-29T12:11:35.640Z,1008.16
2017-05-29T12:12:48.210Z,1008.16
2017-05-29T12:14:00.779Z,1008.12
2017-05-29T12:15:13.080Z,1008.09
2017-05-29T12:16:25.021Z,1008.04
2017-05-29T12:17:37.292Z,1007.98
2017-05-29T12:18:49.877Z,1008.02
2017-05-29T12:20:02.134Z,1008.06
2017-05-29T12:21:14.702Z,1008.05
2017-05-29T12:22:27.290Z,1007.99
2017-05-29T12:23:39.547Z,1007.97
2017-05-29T12:24:52.085Z,1007.98
2017-05-29T12:26:04.666Z,1007.95
2017-05-29T12:27:17.224Z,1007.89
2017-05-29T12:28:29.202Z,1007.95
2017-05-29T12:29:41.777Z,1007.92
2017-05-29T12:30:54.043Z,1007.91
2017-05-29T12:32:06.620Z,1007.95
2017-05-29T12:33:18.881Z,1007.93
2017-05-29T12:34:31.157Z,1007.95
2017-05-29T12:35:43.406Z,1007.85
2017-05-29T12:36:55.999Z,1007.81
2017-05-29T12:38:08.572Z,1007.79
2017-05-29T12:39:20.546Z,1007.76
2017-05-29T12:40:32.544Z,1007.73
2017-05-29T12:41:44.813Z,1007.74
2017-05-29T12:42:57.404Z,1007.75
2017-05-29T12:44:09.974Z,1007.71
2017-05-29T12:45:22.249Z,1007.69
2017-05-29T12:46:34.536Z,1007.66
2017-05-29T12:47:47.089Z,1007.71
2017-05-29T12:48:59.135Z,1007.71
2017-05-29T12:50:10.777Z,1007.66
2017-05-29T12:51:22.425Z,1007.69
2017-05-29T12:52:34.970Z,1007.69
2017-05-29T12:53:47.539Z,1007.73
2017-05-29T12:55:00.118Z,1007.8
2017-05-29T12:56:12.382Z,1007.76
2017-05-29T12:57:24.654Z,1007.84
2017-05-29T12:58:36.870Z,1007.84
2017-05-29T12:59:49.395Z,1007.84
2017-05-29T13:01:01.668Z,1007.82
2017-05-29T13:02:13.912Z,1007.78
2017-05-29T13:03:25.862Z,1007.66
2017-05-29T13:04:38.111Z,1007.58
2017-05-29T13:05:50.703Z,1007.54
2017-05-29T13:07:02.374Z,1007.52
2017-05-29T13:08:14.920Z,1007.5
2017-05-29T13:09:27.188Z,1007.53
2017-05-29T13:10:39.758Z,1007.51
2017-05-29T13:11:51.731Z,1007.54
2017-05-29T13:13:04.081Z,1007.5
2017-05-29T13:14:16.696Z,1007.44
2017-05-29T13:15:29.264Z,1007.41
2017-05-29T13:16:41.830Z,1007.38
2017-05-29T13:17:54.106Z,1007.33
2017-05-29T13:19:06.660Z,1007.34
2017-05-29T13:20:19.229Z,1007.36
2017-05-29T13:21:31.197Z,1007.32
2017-05-29T13:22:43.721Z,1007.25
2017-05-29T13:23:56.290Z,1007.29
2017-05-29T13:25:08.888Z,1007.28
2017-05-29T13:26:19.934Z,1007.2
2017-05-29T13:27:32.497Z,1007.19
2017-05-29T13:28:44.773Z,1007.21
2017-05-29T13:29:57.348Z,1007.21
2017-05-29T13:31:09.594Z,1007.18
2017-05-29T13:32:22.166Z,1007.19
2017-05-29T13:33:34.723Z,1007.17
2017-05-29T13:34:46.677Z,1007.15
2017-05-29T13:35:58.949Z,1007.12
2017-05-29T13:37:10.921Z,1007.13
2017-05-29T13:38:22.867Z,1007.11
2017-05-29T13:39:35.411Z,1007.13
2017-05-29T13:40:47.061Z,1007.07
2017-05-29T13:41:59.330Z,1007.09
2017-05-29T13:43:11.052Z,1007.15
2017-05-29T13:44:23.290Z,1007.13
2017-05-29T13:45:35.569Z,1007.16
2017-05-29T13:46:47.839Z,1007.17
2017-05-29T13:48:00.056Z,1007.15
2017-05-29T13:49:12.328Z,1007.17
2017-05-29T13:50:24.608Z,1007.18
2017-05-29T13:51:36.245Z,1007.2
2017-05-29T13:52:48.570Z,1007.17
2017-05-29T13:54:00.815Z,1007.14
2017-05-29T13:55:13.389Z,1007.11
2017-05-29T13:56:25.653Z,1007.08
2017-05-29T13:57:38.195Z,1007.09
2017-05-29T13:58:50.499Z,1007.14
2017-05-29T14:00:02.751Z,1007.12
2017-05-29T14:01:15.016Z,1007.1
2017-05-29T14:02:26.989Z,1007.06
2017-05-29T14:03:38.958Z,1007.03
2017-05-29T14:04:51.200Z,1007.11
2017-05-29T14:06:03.778Z,1007.08
2017-05-29T14:07:16.045Z,1007.1
2017-05-29T14:08:28.363Z,1007.1
2017-05-29T14:09:40.016Z,1007.1
2017-05-29T14:10:52.283Z,1007.13
2017-05-29T14:12:04.532Z,1007.11
2017-05-29T14:13:17.093Z,1007.07
2017-05-29T14:14:29.046Z,1007.1
2017-05-29T14:15:41.313Z,1007.13
2017-05-29T14:16:53.586Z,1007.08
2017-05-29T14:18:05.555Z,1007.2
2017-05-29T14:19:17.501Z,1007.18
2017-05-29T14:20:29.427Z,1007.12
2017-05-29T14:21:41.997Z,1007.11
2017-05-29T14:22:54.569Z,1007.11
2017-05-29T14:24:07.162Z,1007.15
2017-05-29T14:25:19.423Z,1007.14
2017-05-29T14:26:31.982Z,1007.17
2017-05-29T14:27:44.522Z,1007.14
2017-05-29T14:28:56.747Z,1007.09
2017-05-29T14:30:09.014Z,1007.11
2017-05-29T14:31:21.561Z,1007.12
2017-05-29T14:32:33.827Z,1007.14
2017-05-29T14:33:46.429Z,1007.19
2017-05-29T14:34:58.676Z,1007.24
2017-05-29T14:36:10.940Z,1007.3
2017-05-29T14:37:23.490Z,1007.32